sensor_id;sensor_type;location;lat;lon;timestamp;pressure;altitude;pressure_sealevel;temperature;humidity
65659;BME280;60181;53.258;6.932;2023-04-01T00:02:23;99365.26;;;15.62;65.01
65659;BME280;60181;53.258;6.932;2023-04-01T00:06:27;99363.37;;;15.61;64.95
65659;BME280;60181;53.258;6.932;2023-04-01T00:10:31;99362.90;;;15.61;64.98
65659;BME280;60181;53.258;6.932;2023-04-01T00:14:35;99361.90;;;15.60;64.97
65659;BME280;60181;53.258;6.932;2023-04-01T00:18:39;99362.33;;;15.60;64.92
65659;BME280;60181;53.258;6.932;2023-04-01T00:22:43;99361.60;;;15.60;64.86
65659;BME280;60181;53.258;6.932;2023-04-01T00:26:47;99361.45;;;15.59;64.94
65659;BME280;60181;53.258;6.932;2023-04-01T00:30:51;99360.71;;;15.58;65.01
65659;BME280;60181;53.258;6.932;2023-04-01T00:34:55;99361.70;;;15.58;65.09
65659;BME280;60181;53.258;6.932;2023-04-01T00:38:59;99360.97;;;15.58;65.01
65659;BME280;60181;53.258;6.932;2023-04-01T00:43:05;99360.14;;;15.58;64.96
65659;BME280;60181;53.258;6.932;2023-04-01T00:47:07;99359.22;;;15.58;65.08
65659;BME280;60181;53.258;6.932;2023-04-01T00:51:13;99358.87;;;15.59;65.16
65659;BME280;60181;53.258;6.932;2023-04-01T00:55:15;99358.37;;;15.59;65.07
65659;BME280;60181;53.258;6.932;2023-04-01T00:59:21;99358.54;;;15.59;65.21
65659;BME280;60181;53.258;6.932;2023-04-01T01:03:23;99358.33;;;15.58;65.25
65659;BME280;60181;53.258;6.932;2023-04-01T01:07:33;99358.65;;;15.58;65.13
65659;BME280;60181;53.258;6.932;2023-04-01T01:11:35;99359.71;;;15.58;65.23
65659;BME280;60181;53.258;6.932;2023-04-01T01:15:48;99360.49;;;15.57;65.27
65659;BME280;60181;53.258;6.932;2023-04-01T01:19:52;99361.56;;;15.56;65.33
65659;BME280;60181;53.258;6.932;2023-04-01T01:24:07;99362.31;;;15.56;65.23
65659;BME280;60181;53.258;6.932;2023-04-01T01:27:49;99362.97;;;15.55;65.25
65659;BME280;60181;53.258;6.932;2023-04-01T01:35:56;99364.90;;;15.55;65.42
65659;BME280;60181;53.258;6.932;2023-04-01T01:40:00;99366.22;;;15.55;65.50
65659;BME280;60181;53.258;6.932;2023-04-01T01:44:05;99367.38;;;15.55;65.39
65659;BME280;60181;53.258;6.932;2023-04-01T01:48:07;99368.60;;;15.55;65.43
65659;BME280;60181;53.258;6.932;2023-04-01T01:52:12;99369.42;;;15.54;65.56
65659;BME280;60181;53.258;6.932;2023-04-01T01:56:15;99370.59;;;15.54;65.48
65659;BME280;60181;53.258;6.932;2023-04-01T02:00:19;99371.83;;;15.53;65.42
65659;BME280;60181;53.258;6.932;2023-04-01T02:04:23;99373.83;;;15.53;65.40
65659;BME280;60181;53.258;6.932;2023-04-01T02:08:31;99375.48;;;15.53;65.39
65659;BME280;60181;53.258;6.932;2023-04-01T02:12:31;99377.54;;;15.53;65.35
65659;BME280;60181;53.258;6.932;2023-04-01T02:16:39;99379.92;;;15.53;65.37
65659;BME280;60181;53.258;6.932;2023-04-01T02:20:39;99382.31;;;15.53;65.46
65659;BME280;60181;53.258;6.932;2023-04-01T02:24:43;99385.11;;;15.53;65.38
65659;BME280;60181;53.258;6.932;2023-04-01T02:28:47;99387.18;;;15.53;65.44
65659;BME280;60181;53.258;6.932;2023-04-01T02:32:51;99389.40;;;15.53;65.71
65659;BME280;60181;53.258;6.932;2023-04-01T02:36:55;99390.66;;;15.54;65.37
65659;BME280;60181;53.258;6.932;2023-04-01T02:41:00;99392.38;;;15.54;65.29
65659;BME280;60181;53.258;6.932;2023-04-01T02:45:03;99394.28;;;15.53;65.41
65659;BME280;60181;53.258;6.932;2023-04-01T02:49:07;99396.91;;;15.56;65.47
65659;BME280;60181;53.258;6.932;2023-04-01T02:53:11;99397.94;;;15.56;65.24
65659;BME280;60181;53.258;6.932;2023-04-01T02:57:15;99399.92;;;15.56;65.27
65659;BME280;60181;53.258;6.932;2023-04-01T03:01:19;99402.42;;;15.56;65.27
65659;BME280;60181;53.258;6.932;2023-04-01T03:05:23;99404.67;;;15.55;66.29
65659;BME280;60181;53.258;6.932;2023-04-01T03:09:27;99407.31;;;15.54;65.31
65659;BME280;60181;53.258;6.932;2023-04-01T03:13:31;99409.56;;;15.53;65.37
65659;BME280;60181;53.258;6.932;2023-04-01T03:17:35;99411.69;;;15.52;65.45
65659;BME280;60181;53.258;6.932;2023-04-01T03:21:39;99414.18;;;15.53;66.17
65659;BME280;60181;53.258;6.932;2023-04-01T03:25:43;99416.66;;;15.53;65.41
65659;BME280;60181;53.258;6.932;2023-04-01T03:29:47;99418.67;;;15.51;65.49
65659;BME280;60181;53.258;6.932;2023-04-01T03:33:51;99421.17;;;15.49;65.31
65659;BME280;60181;53.258;6.932;2023-04-01T03:37:55;99424.49;;;15.47;65.35
65659;BME280;60181;53.258;6.932;2023-04-01T03:41:59;99427.17;;;15.44;65.27
65659;BME280;60181;53.258;6.932;2023-04-01T03:46:03;99429.77;;;15.42;65.12
65659;BME280;60181;53.258;6.932;2023-04-01T03:50:07;99431.78;;;15.39;65.18
65659;BME280;60181;53.258;6.932;2023-04-01T03:54:11;99433.95;;;15.35;65.15
65659;BME280;60181;53.258;6.932;2023-04-01T03:58:15;99437.45;;;15.34;64.98
65659;BME280;60181;53.258;6.932;2023-04-01T04:02:19;99440.20;;;15.32;65.06
65659;BME280;60181;53.258;6.932;2023-04-01T04:06:23;99442.95;;;15.30;64.82
65659;BME280;60181;53.258;6.932;2023-04-01T04:10:27;99445.95;;;15.28;64.96
65659;BME280;60181;53.258;6.932;2023-04-01T04:14:31;99448.85;;;15.26;64.84
65659;BME280;60181;53.258;6.932;2023-04-01T04:18:35;99451.65;;;15.25;64.90
65659;BME280;60181;53.258;6.932;2023-04-01T04:22:39;99453.74;;;15.24;64.77
65659;BME280;60181;53.258;6.932;2023-04-01T04:26:43;99456.16;;;15.23;64.84
65659;BME280;60181;53.258;6.932;2023-04-01T04:30:47;99459.38;;;15.21;64.83
65659;BME280;60181;53.258;6.932;2023-04-01T04:34:51;99463.45;;;15.19;64.92
65659;BME280;60181;53.258;6.932;2023-04-01T04:38:55;99468.53;;;15.17;64.89
65659;BME280;60181;53.258;6.932;2023-04-01T04:42:59;99473.56;;;15.16;64.75
65659;BME280;60181;53.258;6.932;2023-04-01T04:47:03;99477.98;;;15.18;64.70
65659;BME280;60181;53.258;6.932;2023-04-01T04:51:07;99481.58;;;15.22;64.14
65659;BME280;60181;53.258;6.932;2023-04-01T04:55:11;99485.91;;;15.27;64.20
65659;BME280;60181;53.258;6.932;2023-04-01T04:59:15;99491.28;;;15.31;64.26
65659;BME280;60181;53.258;6.932;2023-04-01T05:03:19;99494.95;;;15.34;64.34
65659;BME280;60181;53.258;6.932;2023-04-01T05:07:23;99499.55;;;15.38;64.32
65659;BME280;60181;53.258;6.932;2023-04-01T05:11:27;99504.03;;;15.41;64.32
65659;BME280;60181;53.258;6.932;2023-04-01T05:15:31;99508.87;;;15.43;64.37
65659;BME280;60181;53.258;6.932;2023-04-01T05:19:35;99514.28;;;15.46;64.40
65659;BME280;60181;53.258;6.932;2023-04-01T05:23:39;99519.22;;;15.48;64.37
65659;BME280;60181;53.258;6.932;2023-04-01T05:27:43;99524.38;;;15.50;64.39
65659;BME280;60181;53.258;6.932;2023-04-01T05:31:47;99528.75;;;15.51;64.42
65659;BME280;60181;53.258;6.932;2023-04-01T05:35:51;99532.78;;;15.53;64.37
65659;BME280;60181;53.258;6.932;2023-04-01T05:39:55;99538.62;;;15.54;64.41
65659;BME280;60181;53.258;6.932;2023-04-01T05:43:59;99542.90;;;15.55;64.44
65659;BME280;60181;53.258;6.932;2023-04-01T05:48:03;99547.58;;;15.56;64.40
65659;BME280;60181;53.258;6.932;2023-04-01T05:52:07;99551.44;;;15.57;64.40
65659;BME280;60181;53.258;6.932;2023-04-01T05:56:11;99555.22;;;15.58;64.44
65659;BME280;60181;53.258;6.932;2023-04-01T06:00:15;99560.66;;;15.60;64.46
65659;BME280;60181;53.258;6.932;2023-04-01T06:04:19;99565.37;;;15.60;64.47
65659;BME280;60181;53.258;6.932;2023-04-01T06:08:23;99569.71;;;15.61;64.49
65659;BME280;60181;53.258;6.932;2023-04-01T06:16:39;99579.78;;;15.63;64.49
65659;BME280;60181;53.258;6.932;2023-04-01T06:28:52;99595.42;;;15.65;64.47
65659;BME280;60181;53.258;6.932;2023-04-01T06:36:57;99605.81;;;15.66;64.46
65659;BME280;60181;53.258;6.932;2023-04-01T07:01:20;99637.65;;;15.69;64.46
65659;BME280;60181;53.258;6.932;2023-04-01T07:05:19;99641.75;;;15.70;64.44
65659;BME280;60181;53.258;6.932;2023-04-01T07:09:26;99645.73;;;15.70;64.47
65659;BME280;60181;53.258;6.932;2023-04-01T07:17:31;99655.70;;;15.79;66.69
65659;BME280;60181;53.258;6.932;2023-04-01T07:25:42;99666.47;;;15.94;66.12
65659;BME280;60181;53.258;6.932;2023-04-01T07:29:43;99672.06;;;16.02;65.94
65659;BME280;60181;53.258;6.932;2023-04-01T07:34:04;99677.62;;;16.12;65.54
65659;BME280;60181;53.258;6.932;2023-04-01T07:41:58;99688.83;;;16.39;64.99
65659;BME280;60181;53.258;6.932;2023-04-01T07:50:09;99700.51;;;16.39;65.83
65659;BME280;60181;53.258;6.932;2023-04-01T07:54:21;99707.22;;;16.37;65.87
65659;BME280;60181;53.258;6.932;2023-04-01T08:02:36;99721.64;;;16.28;65.64
65659;BME280;60181;53.258;6.932;2023-04-01T08:06:36;99728.78;;;16.25;65.46
65659;BME280;60181;53.258;6.932;2023-04-01T08:14:30;99740.67;;;16.24;65.04
65659;BME280;60181;53.258;6.932;2023-04-01T08:18:39;99746.56;;;16.30;64.21
65659;BME280;60181;53.258;6.932;2023-04-01T08:22:53;99751.05;;;16.36;64.51
65659;BME280;60181;53.258;6.932;2023-04-01T08:26:39;99755.95;;;16.45;63.94
65659;BME280;60181;53.258;6.932;2023-04-01T08:30:44;99760.21;;;16.56;63.79
65659;BME280;60181;53.258;6.932;2023-04-01T08:34:47;99765.53;;;16.60;64.58
65659;BME280;60181;53.258;6.932;2023-04-01T08:47:10;99782.19;;;16.56;64.85
65659;BME280;60181;53.258;6.932;2023-04-01T08:51:09;99788.61;;;16.52;65.06
65659;BME280;60181;53.258;6.932;2023-04-01T09:11:26;99829.29;;;16.36;65.00
65659;BME280;60181;53.258;6.932;2023-04-01T09:23:43;99850.51;;;16.28;64.90
65659;BME280;60181;53.258;6.932;2023-04-01T09:27:45;99858.23;;;16.26;65.03
65659;BME280;60181;53.258;6.932;2023-04-01T09:35:58;99873.56;;;16.20;65.08
65659;BME280;60181;53.258;6.932;2023-04-01T09:44:01;99887.23;;;16.17;64.91
65659;BME280;60181;53.258;6.932;2023-04-01T09:56:18;99906.08;;;16.17;64.74
65659;BME280;60181;53.258;6.932;2023-04-01T10:28:45;99965.25;;;16.13;64.71
65659;BME280;60181;53.258;6.932;2023-04-01T10:33:03;99971.81;;;16.13;64.65
65659;BME280;60181;53.258;6.932;2023-04-01T10:36:51;99978.66;;;16.12;64.56
65659;BME280;60181;53.258;6.932;2023-04-01T10:40:57;99984.78;;;16.12;64.52
65659;BME280;60181;53.258;6.932;2023-04-01T10:44:58;99989.97;;;16.13;64.34
65659;BME280;60181;53.258;6.932;2023-04-01T10:49:14;99995.23;;;16.15;64.27
65659;BME280;60181;53.258;6.932;2023-04-01T10:57:28;100004.06;;;16.16;64.17
65659;BME280;60181;53.258;6.932;2023-04-01T11:29:43;100049.33;;;16.31;63.31
65659;BME280;60181;53.258;6.932;2023-04-01T11:33:47;100055.42;;;16.33;63.27
65659;BME280;60181;53.258;6.932;2023-04-01T12:10:19;100116.65;;;16.33;63.57
65659;BME280;60181;53.258;6.932;2023-04-01T12:18:38;100133.28;;;16.30;63.59
65659;BME280;60181;53.258;6.932;2023-04-01T12:22:34;100141.40;;;16.29;63.63
65659;BME280;60181;53.258;6.932;2023-04-01T12:30:41;100156.97;;;16.24;63.73
65659;BME280;60181;53.258;6.932;2023-04-01T12:43:02;100179.03;;;16.20;63.86
65659;BME280;60181;53.258;6.932;2023-04-01T12:51:07;100192.25;;;16.20;63.77
65659;BME280;60181;53.258;6.932;2023-04-01T13:07:29;100221.28;;;16.18;63.73
65659;BME280;60181;53.258;6.932;2023-04-01T13:15:30;100234.34;;;16.17;63.61
65659;BME280;60181;53.258;6.932;2023-04-01T13:19:36;100241.09;;;16.18;63.48
65659;BME280;60181;53.258;6.932;2023-04-01T13:23:43;100247.80;;;16.18;63.40
65659;BME280;60181;53.258;6.932;2023-04-01T13:27:40;100254.66;;;16.19;63.33
65659;BME280;60181;53.258;6.932;2023-04-01T13:31:41;100261.00;;;16.19;63.42
65659;BME280;60181;53.258;6.932;2023-04-01T13:35:51;100268.28;;;16.18;63.36
65659;BME280;60181;53.258;6.932;2023-04-01T13:52:09;100294.38;;;16.17;63.29
65659;BME280;60181;53.258;6.932;2023-04-01T14:04:20;100316.88;;;16.13;63.25
65659;BME280;60181;53.258;6.932;2023-04-01T14:08:20;100325.06;;;16.12;63.25
65659;BME280;60181;53.258;6.932;2023-04-01T14:12:22;100333.42;;;16.11;63.26
65659;BME280;60181;53.258;6.932;2023-04-01T14:16:47;100340.68;;;16.10;63.26
65659;BME280;60181;53.258;6.932;2023-04-01T14:20:41;100347.78;;;16.09;63.24
65659;BME280;60181;53.258;6.932;2023-04-01T14:24:41;100355.88;;;16.08;63.29
65659;BME280;60181;53.258;6.932;2023-04-01T14:49:04;100404.63;;;16.03;62.93
65659;BME280;60181;53.258;6.932;2023-04-01T14:57:12;100420.17;;;16.02;63.00
65659;BME280;60181;53.258;6.932;2023-04-01T15:09:17;100445.34;;;15.99;62.92
65659;BME280;60181;53.258;6.932;2023-04-01T15:37:59;100509.20;;;15.92;62.81
65659;BME280;60181;53.258;6.932;2023-04-01T15:49:59;100537.86;;;16.00;62.48
65659;BME280;60181;53.258;6.932;2023-04-01T16:02:21;100562.11;;;16.15;62.77
65659;BME280;60181;53.258;6.932;2023-04-01T16:06:33;100570.54;;;16.14;62.80
65659;BME280;60181;53.258;6.932;2023-04-01T16:10:28;100579.96;;;16.11;62.88
65659;BME280;60181;53.258;6.932;2023-04-01T16:18:26;100601.18;;;16.05;62.87
65659;BME280;60181;53.258;6.932;2023-04-01T16:22:37;100610.57;;;16.02;62.70
65659;BME280;60181;53.258;6.932;2023-04-01T16:26:42;100619.90;;;16.00;62.69
65659;BME280;60181;53.258;6.932;2023-04-01T16:30:37;100628.31;;;15.98;62.63
65659;BME280;60181;53.258;6.932;2023-04-01T16:34:40;100637.41;;;15.96;62.60
65659;BME280;60181;53.258;6.932;2023-04-01T16:38:55;100645.68;;;15.95;62.57
65659;BME280;60181;53.258;6.932;2023-04-01T16:46:53;100662.91;;;15.92;62.58
65659;BME280;60181;53.258;6.932;2023-04-01T16:54:59;100682.14;;;15.89;62.60
65659;BME280;60181;53.258;6.932;2023-04-01T16:59:03;100689.83;;;15.87;62.60
65659;BME280;60181;53.258;6.932;2023-04-01T17:03:11;100699.00;;;15.86;62.58
65659;BME280;60181;53.258;6.932;2023-04-01T17:07:11;100708.31;;;15.85;62.59
65659;BME280;60181;53.258;6.932;2023-04-01T17:11:27;100717.46;;;15.84;62.67
65659;BME280;60181;53.258;6.932;2023-04-01T17:15:25;100726.68;;;15.83;62.55
65659;BME280;60181;53.258;6.932;2023-04-01T17:23:40;100747.00;;;15.81;62.48
65659;BME280;60181;53.258;6.932;2023-04-01T17:31:46;100766.88;;;15.79;62.42
65659;BME280;60181;53.258;6.932;2023-04-01T17:43:52;100793.81;;;15.77;62.46
65659;BME280;60181;53.258;6.932;2023-04-01T17:48:12;100802.63;;;15.76;62.38
65659;BME280;60181;53.258;6.932;2023-04-01T18:04:18;100839.76;;;15.71;62.42
65659;BME280;60181;53.258;6.932;2023-04-01T18:08:28;100849.25;;;15.71;62.49
65659;BME280;60181;53.258;6.932;2023-04-01T18:24:28;100890.20;;;15.72;62.03
65659;BME280;60181;53.258;6.932;2023-04-01T18:28:35;100900.55;;;15.71;62.06
65659;BME280;60181;53.258;6.932;2023-04-01T18:32:35;100912.48;;;15.71;62.01
65659;BME280;60181;53.258;6.932;2023-04-01T18:36:56;100923.41;;;15.71;62.02
65659;BME280;60181;53.258;6.932;2023-04-01T18:52:58;100965.52;;;15.72;62.51
65659;BME280;60181;53.258;6.932;2023-04-01T18:57:13;100976.43;;;15.81;62.80
65659;BME280;60181;53.258;6.932;2023-04-01T19:01:06;100987.02;;;15.84;62.26
65659;BME280;60181;53.258;6.932;2023-04-01T19:05:09;100997.94;;;15.84;62.55
65659;BME280;60181;53.258;6.932;2023-04-01T19:09:19;101007.81;;;15.82;62.49
65659;BME280;60181;53.258;6.932;2023-04-01T19:13:19;101017.13;;;15.80;62.45
65659;BME280;60181;53.258;6.932;2023-04-01T19:21:29;101038.24;;;15.76;62.36
65659;BME280;60181;53.258;6.932;2023-04-01T19:29:37;101060.27;;;15.72;62.19
65659;BME280;60181;53.258;6.932;2023-04-01T19:37:45;101080.38;;;15.69;62.06
65659;BME280;60181;53.258;6.932;2023-04-01T19:41:54;101089.36;;;15.68;61.93
65659;BME280;60181;53.258;6.932;2023-04-01T19:45:47;101098.11;;;15.67;61.83
65659;BME280;60181;53.258;6.932;2023-04-01T19:49:56;101105.50;;;15.65;61.84
65659;BME280;60181;53.258;6.932;2023-04-01T20:02:20;101129.92;;;15.63;61.62
65659;BME280;60181;53.258;6.932;2023-04-01T20:06:08;101139.23;;;15.62;61.58
65659;BME280;60181;53.258;6.932;2023-04-01T20:10:12;101146.59;;;15.61;61.54
65659;BME280;60181;53.258;6.932;2023-04-01T20:14:32;101154.25;;;15.61;61.50
65659;BME280;60181;53.258;6.932;2023-04-01T20:18:19;101162.90;;;15.60;61.47
65659;BME280;60181;53.258;6.932;2023-04-01T20:22:38;101172.81;;;15.59;61.42
65659;BME280;60181;53.258;6.932;2023-04-01T20:26:30;101182.22;;;15.58;61.37
65659;BME280;60181;53.258;6.932;2023-04-01T20:34:43;101201.61;;;15.64;61.46
65659;BME280;60181;53.258;6.932;2023-04-01T20:46:53;101229.57;;;15.80;60.76
65659;BME280;60181;53.258;6.932;2023-04-01T20:55:00;101244.80;;;15.85;61.31
65659;BME280;60181;53.258;6.932;2023-04-01T21:03:13;101257.62;;;15.88;63.21
65659;BME280;60181;53.258;6.932;2023-04-01T21:07:11;101263.75;;;15.89;62.57
65659;BME280;60181;53.258;6.932;2023-04-01T21:27:39;101301.01;;;15.90;60.98
65659;BME280;60181;53.258;6.932;2023-04-01T21:31:33;101309.37;;;15.89;61.06
65659;BME280;60181;53.258;6.932;2023-04-01T21:48:08;101342.04;;;15.88;60.98
65659;BME280;60181;53.258;6.932;2023-04-01T21:56:06;101362.13;;;15.87;61.29
65659;BME280;60181;53.258;6.932;2023-04-01T22:00:07;101371.92;;;15.87;62.01
65659;BME280;60181;53.258;6.932;2023-04-01T22:04:24;101381.09;;;15.86;62.19
65659;BME280;60181;53.258;6.932;2023-04-01T22:12:12;101397.19;;;15.86;62.15
65659;BME280;60181;53.258;6.932;2023-04-01T22:24:26;101423.25;;;15.84;62.17
65659;BME280;60181;53.258;6.932;2023-04-01T22:28:35;101430.50;;;15.83;61.88
65659;BME280;60181;53.258;6.932;2023-04-01T22:32:48;101438.82;;;15.82;61.85
65659;BME280;60181;53.258;6.932;2023-04-01T22:36:40;101446.73;;;15.81;62.17
65659;BME280;60181;53.258;6.932;2023-04-01T22:48:53;101468.48;;;15.78;60.03
65659;BME280;60181;53.258;6.932;2023-04-01T22:52:50;101475.56;;;15.77;60.02
65659;BME280;60181;53.258;6.932;2023-04-01T22:57:10;101483.14;;;15.76;59.68
65659;BME280;60181;53.258;6.932;2023-04-01T23:00:58;101490.72;;;15.74;60.57
65659;BME280;60181;53.258;6.932;2023-04-01T23:05:02;101497.50;;;15.73;60.95
65659;BME280;60181;53.258;6.932;2023-04-01T23:09:10;101504.33;;;15.73;60.63
65659;BME280;60181;53.258;6.932;2023-04-01T23:13:15;101511.16;;;15.72;60.02
65659;BME280;60181;53.258;6.932;2023-04-01T23:17:19;101517.67;;;15.71;59.62
65659;BME280;60181;53.258;6.932;2023-04-01T23:21:18;101523.05;;;15.70;59.63
65659;BME280;60181;53.258;6.932;2023-04-01T23:25:38;101530.53;;;15.70;59.57
65659;BME280;60181;53.258;6.932;2023-04-01T23:29:25;101536.90;;;15.69;59.08
65659;BME280;60181;53.258;6.932;2023-04-01T23:33:30;101543.73;;;15.69;59.39
65659;BME280;60181;53.258;6.932;2023-04-01T23:37:33;101551.31;;;15.68;59.34
65659;BME280;60181;53.258;6.932;2023-04-01T23:41:37;101558.62;;;15.67;59.40
65659;BME280;60181;53.258;6.932;2023-04-01T23:45:41;101567.07;;;15.66;59.54
65659;BME280;60181;53.258;6.932;2023-04-01T23:49:46;101573.56;;;15.65;59.40
65659;BME280;60181;53.258;6.932;2023-04-01T23:53:56;101581.63;;;15.64;59.32
65659;BME280;60181;53.258;6.932;2023-04-01T23:58:00;101590.70;;;15.63;59.29
